sensor_id;sensor_type;location;lat;lon;timestamp;temperature;humidity
36374;DHT22;22399;51.346;12.372;2023-02-13T00:01:23;7.80;99.90
36374;DHT22;22399;51.346;12.372;2023-02-13T00:03:53;7.80;99.90
36374;DHT22;22399;51.346;12.372;2023-02-13T00:06:21;7.70;99.90
36374;DHT22;22399;51.346;12.372;2023-02-13T00:08:50;7.70;99.90
36374;DHT22;22399;51.346;12.372;2023-02-13T00:11:18;7.60;99.90
36374;DHT22;22399;51.346;12.372;2023-02-13T00:13:47;7.60;99.90
36374;DHT22;22399;51.346;12.372;2023-02-13T00:16:15;7.50;99.90
36374;DHT22;22399;51.346;12.372;2023-02-13T00:18:43;7.50;99.90
36374;DHT22;22399;51.346;12.372;2023-02-13T00:21:13;7.50;99.90
36374;DHT22;22399;51.346;12.372;2023-02-13T00:23:41;7.40;99.90
36374;DHT22;22399;51.346;12.372;2023-02-13T00:26:11;7.40;99.90
36374;DHT22;22399;51.346;12.372;2023-02-13T00:28:43;7.40;99.90
36374;DHT22;22399;51.346;12.372;2023-02-13T00:31:13;7.40;99.90
36374;DHT22;22399;51.346;12.372;2023-02-13T00:33:42;7.40;99.90
36374;DHT22;22399;51.346;12.372;2023-02-13T00:36:14;7.40;99.90
36374;DHT22;22399;51.346;12.372;2023-02-13T00:38:44;7.50;99.90
36374;DHT22;22399;51.346;12.372;2023-02-13T00:41:13;7.40;99.90
36374;DHT22;22399;51.346;12.372;2023-02-13T00:43:43;7.40;99.90
36374;DHT22;22399;51.346;12.372;2023-02-13T00:46:12;7.50;99.90
36374;DHT22;22399;51.346;12.372;2023-02-13T00:48:40;7.50;99.90
36374;DHT22;22399;51.346;12.372;2023-02-13T00:51:10;7.50;99.90
36374;DHT22;22399;51.346;12.372;2023-02-13T00:53:40;7.50;99.90
36374;DHT22;22399;51.346;12.372;2023-02-13T00:56:08;7.50;99.90
36374;DHT22;22399;51.346;12.372;2023-02-13T00:58:37;7.50;99.90
36374;DHT22;22399;51.346;12.372;2023-02-13T01:01:06;7.50;99.90
36374;DHT22;22399;51.346;12.372;2023-02-13T01:03:34;7.50;99.90
36374;DHT22;22399;51.346;12.372;2023-02-13T01:06:03;7.50;99.90
36374;DHT22;22399;51.346;12.372;2023-02-13T01:08:32;7.50;99.90
36374;DHT22;22399;51.346;12.372;2023-02-13T01:11:01;7.50;99.90
36374;DHT22;22399;51.346;12.372;2023-02-13T01:13:30;7.50;99.90
36374;DHT22;22399;51.346;12.372;2023-02-13T01:15:58;7.50;99.90
36374;DHT22;22399;51.346;12.372;2023-02-13T01:18:28;7.40;99.90
36374;DHT22;22399;51.346;12.372;2023-02-13T01:20:59;7.50;99.90
36374;DHT22;22399;51.346;12.372;2023-02-13T01:23:31;7.50;99.90
36374;DHT22;22399;51.346;12.372;2023-02-13T01:26:03;7.50;99.90
36374;DHT22;22399;51.346;12.372;2023-02-13T01:28:31;7.50;99.90
36374;DHT22;22399;51.346;12.372;2023-02-13T01:31:00;7.50;99.90
36374;DHT22;22399;51.346;12.372;2023-02-13T01:33:29;7.50;99.90
36374;DHT22;22399;51.346;12.372;2023-02-13T01:35:57;7.50;99.90
36374;DHT22;22399;51.346;12.372;2023-02-13T01:38:27;7.50;99.90
36374;DHT22;22399;51.346;12.372;2023-02-13T01:40:57;7.50;99.90
36374;DHT22;22399;51.346;12.372;2023-02-13T01:43:46;7.50;99.90
36374;DHT22;22399;51.346;12.372;2023-02-13T01:46:21;7.50;99.90
36374;DHT22;22399;51.346;12.372;2023-02-13T01:48:53;7.50;99.90
36374;DHT22;22399;51.346;12.372;2023-02-13T01:51:24;7.50;99.90
36374;DHT22;22399;51.346;12.372;2023-02-13T01:53:57;7.50;99.90
36374;DHT22;22399;51.346;12.372;2023-02-13T01:56:30;7.50;99.90
36374;DHT22;22399;51.346;12.372;2023-02-13T01:59:05;7.50;99.90
36374;DHT22;22399;51.346;12.372;2023-02-13T02:01:35;7.50;99.90
36374;DHT22;22399;51.346;12.372;2023-02-13T02:04:07;7.50;99.90
36374;DHT22;22399;51.346;12.372;2023-02-13T02:06:40;7.40;99.90
36374;DHT22;22399;51.346;12.372;2023-02-13T02:09:13;7.40;99.90
36374;DHT22;22399;51.346;12.372;2023-02-13T02:11:50;7.40;99.90
36374;DHT22;22399;51.346;12.372;2023-02-13T02:14:20;7.40;99.90
36374;DHT22;22399;51.346;12.372;2023-02-13T02:16:48;7.40;99.90
36374;DHT22;22399;51.346;12.372;2023-02-13T02:19:27;7.40;99.90
36374;DHT22;22399;51.346;12.372;2023-02-13T02:22:17;7.40;99.90
36374;DHT22;22399;51.346;12.372;2023-02-13T02:28:53;7.40;99.90
36374;DHT22;22399;51.346;12.372;2023-02-13T02:34:38;7.40;99.90
36374;DHT22;22399;51.346;12.372;2023-02-13T02:37:19;7.30;99.90
36374;DHT22;22399;51.346;12.372;2023-02-13T02:40:02;7.30;99.90
36374;DHT22;22399;51.346;12.372;2023-02-13T02:42:38;7.30;99.90
36374;DHT22;22399;51.346;12.372;2023-02-13T02:45:15;7.30;99.90
36374;DHT22;22399;51.346;12.372;2023-02-13T02:47:53;7.30;99.90
36374;DHT22;22399;51.346;12.372;2023-02-13T02:50:44;7.20;99.90
36374;DHT22;22399;51.346;12.372;2023-02-13T02:53:21;7.20;99.90
36374;DHT22;22399;51.346;12.372;2023-02-13T02:55:54;7.20;99.90
36374;DHT22;22399;51.346;12.372;2023-02-13T02:58:27;7.20;99.90
36374;DHT22;22399;51.346;12.372;2023-02-13T03:01:20;7.20;99.90
36374;DHT22;22399;51.346;12.372;2023-02-13T03:04:15;7.20;99.90
36374;DHT22;22399;51.346;12.372;2023-02-13T03:07:05;7.20;99.90
36374;DHT22;22399;51.346;12.372;2023-02-13T03:09:38;7.20;99.90
36374;DHT22;22399;51.346;12.372;2023-02-13T03:12:30;7.20;99.90
36374;DHT22;22399;51.346;12.372;2023-02-13T03:15:19;7.20;99.90
36374;DHT22;22399;51.346;12.372;2023-02-13T03:17:47;7.20;99.90
36374;DHT22;22399;51.346;12.372;2023-02-13T03:20:45;7.20;99.90
36374;DHT22;22399;51.346;12.372;2023-02-13T03:23:41;7.20;99.90
36374;DHT22;22399;51.346;12.372;2023-02-13T03:26:35;7.10;99.90
36374;DHT22;22399;51.346;12.372;2023-02-13T03:29:25;7.10;99.90
36374;DHT22;22399;51.346;12.372;2023-02-13T03:32:19;7.10;99.90
36374;DHT22;22399;51.346;12.372;2023-02-13T03:34:56;7.10;99.90
36374;DHT22;22399;51.346;12.372;2023-02-13T03:37:47;7.10;99.90
36374;DHT22;22399;51.346;12.372;2023-02-13T03:40:27;7.10;99.90
36374;DHT22;22399;51.346;12.372;2023-02-13T03:43:03;7.10;99.90
36374;DHT22;22399;51.346;12.372;2023-02-13T03:45:36;7.10;99.90
36374;DHT22;22399;51.346;12.372;2023-02-13T03:48:24;7.00;99.90
36374;DHT22;22399;51.346;12.372;2023-02-13T03:51:14;7.00;99.90
36374;DHT22;22399;51.346;12.372;2023-02-13T03:53:48;7.00;99.90
36374;DHT22;22399;51.346;12.372;2023-02-13T03:56:19;7.00;99.90
36374;DHT22;22399;51.346;12.372;2023-02-13T03:59:08;7.00;99.90
36374;DHT22;22399;51.346;12.372;2023-02-13T04:01:49;7.00;99.90
36374;DHT22;22399;51.346;12.372;2023-02-13T04:04:23;7.00;99.90
36374;DHT22;22399;51.346;12.372;2023-02-13T04:06:55;7.00;99.90
36374;DHT22;22399;51.346;12.372;2023-02-13T04:09:27;7.00;99.90
36374;DHT22;22399;51.346;12.372;2023-02-13T04:12:01;7.00;99.90
36374;DHT22;22399;51.346;12.372;2023-02-13T04:14:35;7.00;99.90
36374;DHT22;22399;51.346;12.372;2023-02-13T04:17:07;7.00;99.90
36374;DHT22;22399;51.346;12.372;2023-02-13T04:19:36;7.00;99.90
36374;DHT22;22399;51.346;12.372;2023-02-13T04:22:05;7.00;99.90
36374;DHT22;22399;51.346;12.372;2023-02-13T04:24:34;7.00;99.90
36374;DHT22;22399;51.346;12.372;2023-02-13T04:27:03;7.00;99.90
36374;DHT22;22399;51.346;12.372;2023-02-13T04:29:31;7.00;99.90
36374;DHT22;22399;51.346;12.372;2023-02-13T04:31:59;7.00;99.90
36374;DHT22;22399;51.346;12.372;2023-02-13T04:34:28;7.00;99.90
36374;DHT22;22399;51.346;12.372;2023-02-13T04:36:56;7.00;99.90
36374;DHT22;22399;51.346;12.372;2023-02-13T04:39:24;7.00;99.90
36374;DHT22;22399;51.346;12.372;2023-02-13T04:41:54;7.00;99.90
36374;DHT22;22399;51.346;12.372;2023-02-13T04:44:22;7.00;99.90
36374;DHT22;22399;51.346;12.372;2023-02-13T04:46:50;6.90;99.90
36374;DHT22;22399;51.346;12.372;2023-02-13T04:49:18;6.90;99.90
36374;DHT22;22399;51.346;12.372;2023-02-13T04:51:46;6.90;99.90
36374;DHT22;22399;51.346;12.372;2023-02-13T04:54:15;6.90;99.90
36374;DHT22;22399;51.346;12.372;2023-02-13T04:56:43;6.90;99.90
36374;DHT22;22399;51.346;12.372;2023-02-13T04:59:13;6.90;99.90
36374;DHT22;22399;51.346;12.372;2023-02-13T05:01:41;6.80;99.90
36374;DHT22;22399;51.346;12.372;2023-02-13T05:04:09;6.80;99.90
36374;DHT22;22399;51.346;12.372;2023-02-13T05:06:42;6.80;99.90
36374;DHT22;22399;51.346;12.372;2023-02-13T05:09:10;6.80;99.90
36374;DHT22;22399;51.346;12.372;2023-02-13T05:11:38;6.80;99.90
36374;DHT22;22399;51.346;12.372;2023-02-13T05:14:07;6.80;99.90
36374;DHT22;22399;51.346;12.372;2023-02-13T05:16:37;6.80;99.90
36374;DHT22;22399;51.346;12.372;2023-02-13T05:19:06;6.80;99.90
36374;DHT22;22399;51.346;12.372;2023-02-13T05:21:34;6.80;99.90
36374;DHT22;22399;51.346;12.372;2023-02-13T05:24:19;6.80;99.90
36374;DHT22;22399;51.346;12.372;2023-02-13T05:26:48;6.80;99.90
36374;DHT22;22399;51.346;12.372;2023-02-13T05:29:16;6.80;99.90
36374;DHT22;22399;51.346;12.372;2023-02-13T05:31:51;6.80;99.90
36374;DHT22;22399;51.346;12.372;2023-02-13T05:34:21;6.80;99.90
36374;DHT22;22399;51.346;12.372;2023-02-13T05:36:50;6.90;99.90
36374;DHT22;22399;51.346;12.372;2023-02-13T05:39:19;6.90;99.90
36374;DHT22;22399;51.346;12.372;2023-02-13T05:41:47;6.90;99.90
36374;DHT22;22399;51.346;12.372;2023-02-13T05:44:16;6.90;99.90
36374;DHT22;22399;51.346;12.372;2023-02-13T05:46:45;6.90;99.90
36374;DHT22;22399;51.346;12.372;2023-02-13T05:49:15;6.90;99.90
36374;DHT22;22399;51.346;12.372;2023-02-13T05:51:43;6.80;99.90
36374;DHT22;22399;51.346;12.372;2023-02-13T05:54:12;6.80;99.90
36374;DHT22;22399;51.346;12.372;2023-02-13T05:56:41;6.80;99.90
36374;DHT22;22399;51.346;12.372;2023-02-13T05:59:09;6.80;99.90
36374;DHT22;22399;51.346;12.372;2023-02-13T06:01:38;6.80;99.90
36374;DHT22;22399;51.346;12.372;2023-02-13T06:04:07;6.80;99.90
36374;DHT22;22399;51.346;12.372;2023-02-13T06:06:36;6.70;99.90
36374;DHT22;22399;51.346;12.372;2023-02-13T06:09:05;6.70;99.90
36374;DHT22;22399;51.346;12.372;2023-02-13T06:11:33;6.70;99.90
36374;DHT22;22399;51.346;12.372;2023-02-13T06:14:01;6.70;99.90
36374;DHT22;22399;51.346;12.372;2023-02-13T06:16:30;6.70;99.90
36374;DHT22;22399;51.346;12.372;2023-02-13T06:18:58;6.70;99.90
36374;DHT22;22399;51.346;12.372;2023-02-13T06:21:27;6.70;99.90
36374;DHT22;22399;51.346;12.372;2023-02-13T06:23:56;6.70;99.90
36374;DHT22;22399;51.346;12.372;2023-02-13T06:26:24;6.70;99.90
36374;DHT22;22399;51.346;12.372;2023-02-13T06:28:53;6.70;99.90
36374;DHT22;22399;51.346;12.372;2023-02-13T06:31:21;6.70;99.90
36374;DHT22;22399;51.346;12.372;2023-02-13T06:33:50;6.60;99.90
36374;DHT22;22399;51.346;12.372;2023-02-13T06:36:18;6.50;99.90
36374;DHT22;22399;51.346;12.372;2023-02-13T06:38:46;6.50;99.90
36374;DHT22;22399;51.346;12.372;2023-02-13T06:41:16;6.50;99.90
36374;DHT22;22399;51.346;12.372;2023-02-13T06:43:44;6.60;99.90
36374;DHT22;22399;51.346;12.372;2023-02-13T06:46:13;6.60;99.90
36374;DHT22;22399;51.346;12.372;2023-02-13T06:48:41;6.60;99.90
36374;DHT22;22399;51.346;12.372;2023-02-13T06:51:09;6.70;99.90
36374;DHT22;22399;51.346;12.372;2023-02-13T06:53:37;6.70;99.90
36374;DHT22;22399;51.346;12.372;2023-02-13T06:56:06;6.70;99.90
36374;DHT22;22399;51.346;12.372;2023-02-13T06:58:35;6.80;99.90
36374;DHT22;22399;51.346;12.372;2023-02-13T07:01:06;6.80;99.90
36374;DHT22;22399;51.346;12.372;2023-02-13T07:03:34;6.80;99.90
36374;DHT22;22399;51.346;12.372;2023-02-13T07:06:02;6.90;99.90
36374;DHT22;22399;51.346;12.372;2023-02-13T07:08:31;6.90;99.90
36374;DHT22;22399;51.346;12.372;2023-02-13T07:10:59;7.00;99.90
36374;DHT22;22399;51.346;12.372;2023-02-13T07:13:27;7.00;99.90
36374;DHT22;22399;51.346;12.372;2023-02-13T07:16:00;7.10;99.90
36374;DHT22;22399;51.346;12.372;2023-02-13T07:18:29;7.10;99.90
36374;DHT22;22399;51.346;12.372;2023-02-13T07:20:57;7.20;99.90
36374;DHT22;22399;51.346;12.372;2023-02-13T07:23:25;7.20;99.90
36374;DHT22;22399;51.346;12.372;2023-02-13T07:25:54;7.30;99.90
36374;DHT22;22399;51.346;12.372;2023-02-13T07:28:22;7.30;99.90
36374;DHT22;22399;51.346;12.372;2023-02-13T07:30:50;7.30;99.90
36374;DHT22;22399;51.346;12.372;2023-02-13T07:33:24;7.40;99.90
36374;DHT22;22399;51.346;12.372;2023-02-13T07:35:52;7.40;99.90
36374;DHT22;22399;51.346;12.372;2023-02-13T07:38:21;7.40;99.90
36374;DHT22;22399;51.346;12.372;2023-02-13T07:40:49;7.30;99.90
36374;DHT22;22399;51.346;12.372;2023-02-13T07:43:18;7.30;99.90
36374;DHT22;22399;51.346;12.372;2023-02-13T07:45:46;7.30;99.90
36374;DHT22;22399;51.346;12.372;2023-02-13T07:48:15;7.30;99.90
36374;DHT22;22399;51.346;12.372;2023-02-13T07:50:44;7.30;99.90
36374;DHT22;22399;51.346;12.372;2023-02-13T07:53:13;7.30;99.90
36374;DHT22;22399;51.346;12.372;2023-02-13T07:55:41;7.30;99.90
36374;DHT22;22399;51.346;12.372;2023-02-13T07:58:09;7.30;99.90
36374;DHT22;22399;51.346;12.372;2023-02-13T08:00:38;7.40;99.90
36374;DHT22;22399;51.346;12.372;2023-02-13T08:03:06;7.40;99.90
36374;DHT22;22399;51.346;12.372;2023-02-13T08:05:35;7.40;99.90
36374;DHT22;22399;51.346;12.372;2023-02-13T08:08:06;7.40;99.90
36374;DHT22;22399;51.346;12.372;2023-02-13T08:10:34;7.50;99.90
36374;DHT22;22399;51.346;12.372;2023-02-13T08:13:19;7.60;99.90
36374;DHT22;22399;51.346;12.372;2023-02-13T08:15:48;7.60;99.90
36374;DHT22;22399;51.346;12.372;2023-02-13T08:18:16;7.60;99.90
36374;DHT22;22399;51.346;12.372;2023-02-13T08:20:46;7.60;99.90
36374;DHT22;22399;51.346;12.372;2023-02-13T08:23:16;7.70;99.90
36374;DHT22;22399;51.346;12.372;2023-02-13T08:25:44;7.70;99.90
36374;DHT22;22399;51.346;12.372;2023-02-13T08:28:14;7.70;99.90
36374;DHT22;22399;51.346;12.372;2023-02-13T08:30:42;7.70;99.90
36374;DHT22;22399;51.346;12.372;2023-02-13T08:33:11;7.70;99.90
36374;DHT22;22399;51.346;12.372;2023-02-13T08:35:40;7.70;99.90
36374;DHT22;22399;51.346;12.372;2023-02-13T08:38:08;7.70;99.90
36374;DHT22;22399;51.346;12.372;2023-02-13T08:40:39;7.80;99.90
36374;DHT22;22399;51.346;12.372;2023-02-13T08:43:07;7.90;99.90
36374;DHT22;22399;51.346;12.372;2023-02-13T08:45:36;7.90;99.90
36374;DHT22;22399;51.346;12.372;2023-02-13T08:48:04;8.00;99.50
36374;DHT22;22399;51.346;12.372;2023-02-13T08:50:33;8.00;99.40
36374;DHT22;22399;51.346;12.372;2023-02-13T08:53:03;8.00;99.30
36374;DHT22;22399;51.346;12.372;2023-02-13T08:55:32;8.10;99.20
36374;DHT22;22399;51.346;12.372;2023-02-13T08:58:03;8.00;98.70
36374;DHT22;22399;51.346;12.372;2023-02-13T09:00:31;7.90;98.80
36374;DHT22;22399;51.346;12.372;2023-02-13T09:03:00;7.90;98.80
36374;DHT22;22399;51.346;12.372;2023-02-13T09:05:29;7.80;98.60
36374;DHT22;22399;51.346;12.372;2023-02-13T09:07:59;7.80;98.50
36374;DHT22;22399;51.346;12.372;2023-02-13T09:10:29;7.80;98.70
36374;DHT22;22399;51.346;12.372;2023-02-13T09:12:57;7.80;98.90
36374;DHT22;22399;51.346;12.372;2023-02-13T09:15:28;7.90;98.90
36374;DHT22;22399;51.346;12.372;2023-02-13T09:17:57;8.00;98.60
36374;DHT22;22399;51.346;12.372;2023-02-13T09:20:26;7.90;98.30
36374;DHT22;22399;51.346;12.372;2023-02-13T09:22:54;8.00;98.50
36374;DHT22;22399;51.346;12.372;2023-02-13T09:25:24;8.00;98.40
36374;DHT22;22399;51.346;12.372;2023-02-13T09:27:52;8.00;98.20
36374;DHT22;22399;51.346;12.372;2023-02-13T09:30:21;8.00;98.20
36374;DHT22;22399;51.346;12.372;2023-02-13T09:32:52;7.90;98.30
36374;DHT22;22399;51.346;12.372;2023-02-13T09:35:21;7.90;98.20
36374;DHT22;22399;51.346;12.372;2023-02-13T09:37:50;7.90;98.40
36374;DHT22;22399;51.346;12.372;2023-02-13T09:40:24;7.90;98.20
36374;DHT22;22399;51.346;12.372;2023-02-13T09:43:03;7.90;98.10
36374;DHT22;22399;51.346;12.372;2023-02-13T09:45:33;8.00;98.30
36374;DHT22;22399;51.346;12.372;2023-02-13T09:48:04;8.10;98.20
36374;DHT22;22399;51.346;12.372;2023-02-13T09:50:33;8.10;98.00
36374;DHT22;22399;51.346;12.372;2023-02-13T09:53:03;8.00;97.70
36374;DHT22;22399;51.346;12.372;2023-02-13T09:55:38;8.00;97.70
36374;DHT22;22399;51.346;12.372;2023-02-13T09:58:21;8.10;97.90
36374;DHT22;22399;51.346;12.372;2023-02-13T10:00:57;8.10;97.80
36374;DHT22;22399;51.346;12.372;2023-02-13T10:03:31;8.20;97.70
36374;DHT22;22399;51.346;12.372;2023-02-13T10:06:08;8.10;97.40
36374;DHT22;22399;51.346;12.372;2023-02-13T10:08:54;8.10;97.60
36374;DHT22;22399;51.346;12.372;2023-02-13T10:11:41;8.10;97.50
36374;DHT22;22399;51.346;12.372;2023-02-13T10:14:16;8.00;97.50
36374;DHT22;22399;51.346;12.372;2023-02-13T10:16:49;8.10;97.50
36374;DHT22;22399;51.346;12.372;2023-02-13T10:19:30;8.10;97.40
36374;DHT22;22399;51.346;12.372;2023-02-13T10:22:06;8.00;97.40
36374;DHT22;22399;51.346;12.372;2023-02-13T10:24:38;8.10;97.50
36374;DHT22;22399;51.346;12.372;2023-02-13T10:27:18;8.20;97.60
36374;DHT22;22399;51.346;12.372;2023-02-13T10:29:49;8.20;97.30
36374;DHT22;22399;51.346;12.372;2023-02-13T10:32:41;8.20;97.20
36374;DHT22;22399;51.346;12.372;2023-02-13T10:35:20;8.30;97.40
36374;DHT22;22399;51.346;12.372;2023-02-13T10:37:52;8.40;97.20
36374;DHT22;22399;51.346;12.372;2023-02-13T10:40:27;8.50;97.20
36374;DHT22;22399;51.346;12.372;2023-02-13T10:43:02;8.50;97.00
36374;DHT22;22399;51.346;12.372;2023-02-13T10:45:54;8.60;96.90
36374;DHT22;22399;51.346;12.372;2023-02-13T10:48:55;8.60;96.60
36374;DHT22;22399;51.346;12.372;2023-02-13T10:51:33;8.50;96.60
36374;DHT22;22399;51.346;12.372;2023-02-13T10:54:23;8.70;96.80
36374;DHT22;22399;51.346;12.372;2023-02-13T10:56:58;8.70;96.60
36374;DHT22;22399;51.346;12.372;2023-02-13T10:59:58;8.80;96.40
36374;DHT22;22399;51.346;12.372;2023-02-13T11:02:31;8.80;96.30
36374;DHT22;22399;51.346;12.372;2023-02-13T11:05:10;9.00;96.40
36374;DHT22;22399;51.346;12.372;2023-02-13T11:07:42;9.00;95.90
36374;DHT22;22399;51.346;12.372;2023-02-13T11:10:15;9.10;95.60
36374;DHT22;22399;51.346;12.372;2023-02-13T11:12:44;9.00;95.40
36374;DHT22;22399;51.346;12.372;2023-02-13T11:15:22;8.90;95.20
36374;DHT22;22399;51.346;12.372;2023-02-13T11:17:52;8.80;95.30
36374;DHT22;22399;51.346;12.372;2023-02-13T11:20:31;8.80;95.30
36374;DHT22;22399;51.346;12.372;2023-02-13T11:23:24;8.80;95.10
36374;DHT22;22399;51.346;12.372;2023-02-13T11:25:56;8.80;95.00
36374;DHT22;22399;51.346;12.372;2023-02-13T11:28:27;8.80;95.10
36374;DHT22;22399;51.346;12.372;2023-02-13T11:31:13;8.80;94.90
36374;DHT22;22399;51.346;12.372;2023-02-13T11:33:46;8.70;94.80
36374;DHT22;22399;51.346;12.372;2023-02-13T11:36:16;8.70;94.90
36374;DHT22;22399;51.346;12.372;2023-02-13T11:38:59;8.80;94.70
36374;DHT22;22399;51.346;12.372;2023-02-13T11:41:29;8.90;94.40
36374;DHT22;22399;51.346;12.372;2023-02-13T11:44:00;8.90;94.20
36374;DHT22;22399;51.346;12.372;2023-02-13T11:46:42;9.10;94.40
36374;DHT22;22399;51.346;12.372;2023-02-13T11:49:17;9.20;94.20
36374;DHT22;22399;51.346;12.372;2023-02-13T11:51:48;9.30;94.00
36374;DHT22;22399;51.346;12.372;2023-02-13T11:54:29;9.40;93.90
36374;DHT22;22399;51.346;12.372;2023-02-13T11:57:00;9.30;93.40
36374;DHT22;22399;51.346;12.372;2023-02-13T11:59:38;9.20;93.40
36374;DHT22;22399;51.346;12.372;2023-02-13T12:02:18;9.10;93.30
36374;DHT22;22399;51.346;12.372;2023-02-13T12:04:49;9.00;93.60
36374;DHT22;22399;51.346;12.372;2023-02-13T12:07:21;9.10;93.80
36374;DHT22;22399;51.346;12.372;2023-02-13T12:09:54;9.30;93.90
36374;DHT22;22399;51.346;12.372;2023-02-13T12:12:29;9.30;93.70
36374;DHT22;22399;51.346;12.372;2023-02-13T12:15:02;9.40;93.60
36374;DHT22;22399;51.346;12.372;2023-02-13T12:17:34;9.50;93.50
36374;DHT22;22399;51.346;12.372;2023-02-13T12:20:02;9.50;93.10
36374;DHT22;22399;51.346;12.372;2023-02-13T12:22:35;9.40;93.10
36374;DHT22;22399;51.346;12.372;2023-02-13T12:25:33;9.50;93.20
36374;DHT22;22399;51.346;12.372;2023-02-13T12:28:14;9.40;92.80
36374;DHT22;22399;51.346;12.372;2023-02-13T12:31:12;9.30;92.70
36374;DHT22;22399;51.346;12.372;2023-02-13T12:34:05;9.30;92.80
36374;DHT22;22399;51.346;12.372;2023-02-13T12:36:46;9.30;93.00
36374;DHT22;22399;51.346;12.372;2023-02-13T12:39:24;9.30;92.70
36374;DHT22;22399;51.346;12.372;2023-02-13T12:42:06;9.20;92.80
36374;DHT22;22399;51.346;12.372;2023-02-13T12:44:51;9.20;92.60
36374;DHT22;22399;51.346;12.372;2023-02-13T12:47:28;9.00;92.50
36374;DHT22;22399;51.346;12.372;2023-02-13T12:50:10;9.00;92.50
36374;DHT22;22399;51.346;12.372;2023-02-13T12:52:47;9.00;92.70
36374;DHT22;22399;51.346;12.372;2023-02-13T12:55:38;9.10;92.80
36374;DHT22;22399;51.346;12.372;2023-02-13T12:58:24;9.10;92.70
36374;DHT22;22399;51.346;12.372;2023-02-13T13:01:02;9.20;92.70
36374;DHT22;22399;51.346;12.372;2023-02-13T13:03:40;9.40;92.60
36374;DHT22;22399;51.346;12.372;2023-02-13T13:12:13;9.50;92.40
36374;DHT22;22399;51.346;12.372;2023-02-13T13:14:53;9.60;92.30
36374;DHT22;22399;51.346;12.372;2023-02-13T13:17:32;9.60;92.30
36374;DHT22;22399;51.346;12.372;2023-02-13T13:20:33;9.60;92.20
36374;DHT22;22399;51.346;12.372;2023-02-13T13:23:07;9.50;92.00
36374;DHT22;22399;51.346;12.372;2023-02-13T13:25:44;9.50;92.00
36374;DHT22;22399;51.346;12.372;2023-02-13T13:28:16;9.50;92.10
36374;DHT22;22399;51.346;12.372;2023-02-13T13:30:46;9.40;91.90
36374;DHT22;22399;51.346;12.372;2023-02-13T13:33:17;9.30;91.90
36374;DHT22;22399;51.346;12.372;2023-02-13T13:35:54;9.30;92.00
36374;DHT22;22399;51.346;12.372;2023-02-13T13:38:32;9.20;92.10
36374;DHT22;22399;51.346;12.372;2023-02-13T13:41:10;9.20;92.10
36374;DHT22;22399;51.346;12.372;2023-02-13T13:43:51;9.10;91.90
36374;DHT22;22399;51.346;12.372;2023-02-13T13:46:33;9.00;92.00
36374;DHT22;22399;51.346;12.372;2023-02-13T13:49:15;8.90;91.80
36374;DHT22;22399;51.346;12.372;2023-02-13T13:51:45;8.80;92.10
36374;DHT22;22399;51.346;12.372;2023-02-13T13:54:18;8.80;92.20
36374;DHT22;22399;51.346;12.372;2023-02-13T13:57:04;8.80;92.30
36374;DHT22;22399;51.346;12.372;2023-02-13T14:00:18;8.80;92.10
36374;DHT22;22399;51.346;12.372;2023-02-13T14:05:59;8.80;92.30
36374;DHT22;22399;51.346;12.372;2023-02-13T14:11:41;8.80;92.20
36374;DHT22;22399;51.346;12.372;2023-02-13T14:14:46;8.80;92.10
36374;DHT22;22399;51.346;12.372;2023-02-13T14:17:15;8.70;91.90
36374;DHT22;22399;51.346;12.372;2023-02-13T14:19:50;8.60;92.00
36374;DHT22;22399;51.346;12.372;2023-02-13T14:22:31;8.60;92.20
36374;DHT22;22399;51.346;12.372;2023-02-13T14:25:02;8.60;92.20
36374;DHT22;22399;51.346;12.372;2023-02-13T14:27:33;8.60;92.10
36374;DHT22;22399;51.346;12.372;2023-02-13T14:30:04;8.50;92.00
36374;DHT22;22399;51.346;12.372;2023-02-13T14:32:35;8.60;92.40
36374;DHT22;22399;51.346;12.372;2023-02-13T14:35:16;8.60;92.40
36374;DHT22;22399;51.346;12.372;2023-02-13T14:37:49;8.70;92.40
36374;DHT22;22399;51.346;12.372;2023-02-13T14:40:30;8.70;92.30
36374;DHT22;22399;51.346;12.372;2023-02-13T14:43:06;8.70;92.30
36374;DHT22;22399;51.346;12.372;2023-02-13T14:45:47;8.70;92.30
36374;DHT22;22399;51.346;12.372;2023-02-13T14:48:16;8.70;92.20
36374;DHT22;22399;51.346;12.372;2023-02-13T14:50:49;8.60;92.10
36374;DHT22;22399;51.346;12.372;2023-02-13T14:53:23;8.50;92.20
36374;DHT22;22399;51.346;12.372;2023-02-13T14:55:56;8.50;92.40
36374;DHT22;22399;51.346;12.372;2023-02-13T14:58:28;8.50;92.40
36374;DHT22;22399;51.346;12.372;2023-02-13T15:01:02;8.50;92.40
36374;DHT22;22399;51.346;12.372;2023-02-13T15:03:36;8.50;92.40
36374;DHT22;22399;51.346;12.372;2023-02-13T15:06:13;8.50;92.40
36374;DHT22;22399;51.346;12.372;2023-02-13T15:08:48;8.50;92.40
36374;DHT22;22399;51.346;12.372;2023-02-13T15:11:35;8.40;92.40
36374;DHT22;22399;51.346;12.372;2023-02-13T15:14:27;8.40;92.50
36374;DHT22;22399;51.346;12.372;2023-02-13T15:17:01;8.30;92.40
36374;DHT22;22399;51.346;12.372;2023-02-13T15:19:34;8.30;92.70
36374;DHT22;22399;51.346;12.372;2023-02-13T15:22:05;8.10;92.40
36374;DHT22;22399;51.346;12.372;2023-02-13T15:24:37;8.10;92.50
36374;DHT22;22399;51.346;12.372;2023-02-13T15:27:18;8.00;92.50
36374;DHT22;22399;51.346;12.372;2023-02-13T15:29:58;8.00;92.50
36374;DHT22;22399;51.346;12.372;2023-02-13T15:32:30;8.00;92.60
36374;DHT22;22399;51.346;12.372;2023-02-13T15:34:58;7.90;92.80
36374;DHT22;22399;51.346;12.372;2023-02-13T15:37:29;7.90;93.20
36374;DHT22;22399;51.346;12.372;2023-02-13T15:40:15;7.90;92.90
36374;DHT22;22399;51.346;12.372;2023-02-13T15:42:43;8.00;93.00
36374;DHT22;22399;51.346;12.372;2023-02-13T15:45:16;7.90;92.90
36374;DHT22;22399;51.346;12.372;2023-02-13T15:47:45;8.00;93.20
36374;DHT22;22399;51.346;12.372;2023-02-13T15:50:16;8.00;93.00
36374;DHT22;22399;51.346;12.372;2023-02-13T15:52:46;7.90;92.90
36374;DHT22;22399;51.346;12.372;2023-02-13T15:55:20;7.90;93.00
36374;DHT22;22399;51.346;12.372;2023-02-13T15:57:50;7.80;93.00
36374;DHT22;22399;51.346;12.372;2023-02-13T16:00:24;7.80;93.10
36374;DHT22;22399;51.346;12.372;2023-02-13T16:02:54;7.70;93.10
36374;DHT22;22399;51.346;12.372;2023-02-13T16:05:25;7.70;93.20
36374;DHT22;22399;51.346;12.372;2023-02-13T16:08:26;7.60;93.20
36374;DHT22;22399;51.346;12.372;2023-02-13T16:11:28;7.60;93.20
36374;DHT22;22399;51.346;12.372;2023-02-13T16:14:06;7.60;93.30
36374;DHT22;22399;51.346;12.372;2023-02-13T16:16:47;7.60;93.30
36374;DHT22;22399;51.346;12.372;2023-02-13T16:19:22;7.60;93.40
36374;DHT22;22399;51.346;12.372;2023-02-13T16:21:51;7.50;93.40
36374;DHT22;22399;51.346;12.372;2023-02-13T16:24:22;7.50;93.50
36374;DHT22;22399;51.346;12.372;2023-02-13T16:26:51;7.60;93.70
36374;DHT22;22399;51.346;12.372;2023-02-13T16:29:22;7.60;93.60
36374;DHT22;22399;51.346;12.372;2023-02-13T16:31:53;7.50;93.50